sensor_id;sensor_type;location;lat;lon;timestamp;P1;durP1;ratioP1;P2;durP2;ratioP2
73515;SDS011;61763;51.416;5.442;2023-06-19T00:01:17;8.32;;;5.05;;
73515;SDS011;61763;51.416;5.442;2023-06-19T00:03:43;7.90;;;5.03;;
73515;SDS011;61763;51.416;5.442;2023-06-19T00:06:08;7.75;;;5.05;;
73515;SDS011;61763;51.416;5.442;2023-06-19T00:08:35;8.27;;;4.65;;
73515;SDS011;61763;51.416;5.442;2023-06-19T00:11:01;8.27;;;4.80;;
73515;SDS011;61763;51.416;5.442;2023-06-19T00:13:27;8.60;;;4.40;;
73515;SDS011;61763;51.416;5.442;2023-06-19T00:15:52;7.28;;;4.82;;
73515;SDS011;61763;51.416;5.442;2023-06-19T00:18:18;9.60;;;4.88;;
73515;SDS011;61763;51.416;5.442;2023-06-19T00:20:44;8.88;;;5.25;;
73515;SDS011;61763;51.416;5.442;2023-06-19T00:23:11;7.22;;;4.72;;
73515;SDS011;61763;51.416;5.442;2023-06-19T00:25:39;6.35;;;4.72;;
73515;SDS011;61763;51.416;5.442;2023-06-19T00:28:05;6.75;;;4.88;;
73515;SDS011;61763;51.416;5.442;2023-06-19T00:30:38;7.15;;;4.78;;
73515;SDS011;61763;51.416;5.442;2023-06-19T00:33:04;8.25;;;4.57;;
73515;SDS011;61763;51.416;5.442;2023-06-19T00:35:30;6.95;;;4.30;;
73515;SDS011;61763;51.416;5.442;2023-06-19T00:37:56;7.43;;;5.03;;
73515;SDS011;61763;51.416;5.442;2023-06-19T00:40:29;7.13;;;4.35;;
73515;SDS011;61763;51.416;5.442;2023-06-19T00:42:56;6.38;;;4.57;;
73515;SDS011;61763;51.416;5.442;2023-06-19T00:45:22;8.68;;;5.18;;
73515;SDS011;61763;51.416;5.442;2023-06-19T00:50:15;6.85;;;4.18;;
73515;SDS011;61763;51.416;5.442;2023-06-19T00:52:41;7.72;;;4.78;;
73515;SDS011;61763;51.416;5.442;2023-06-19T00:55:07;7.45;;;4.15;;
73515;SDS011;61763;51.416;5.442;2023-06-19T00:57:34;6.32;;;3.85;;
73515;SDS011;61763;51.416;5.442;2023-06-19T01:00:01;7.47;;;4.90;;
73515;SDS011;61763;51.416;5.442;2023-06-19T01:02:29;7.03;;;3.95;;
73515;SDS011;61763;51.416;5.442;2023-06-19T01:04:56;6.32;;;3.58;;
73515;SDS011;61763;51.416;5.442;2023-06-19T01:07:29;6.72;;;3.80;;
73515;SDS011;61763;51.416;5.442;2023-06-19T01:10:05;5.82;;;3.55;;
73515;SDS011;61763;51.416;5.442;2023-06-19T01:12:35;5.78;;;3.60;;
73515;SDS011;61763;51.416;5.442;2023-06-19T01:15:03;7.30;;;3.85;;
73515;SDS011;61763;51.416;5.442;2023-06-19T01:17:31;6.03;;;3.47;;
73515;SDS011;61763;51.416;5.442;2023-06-19T01:19:57;10.60;;;4.15;;
73515;SDS011;61763;51.416;5.442;2023-06-19T01:22:25;7.80;;;3.92;;
73515;SDS011;61763;51.416;5.442;2023-06-19T01:24:51;7.30;;;3.50;;
73515;SDS011;61763;51.416;5.442;2023-06-19T01:27:17;6.60;;;2.92;;
73515;SDS011;61763;51.416;5.442;2023-06-19T01:29:42;5.15;;;3.42;;
73515;SDS011;61763;51.416;5.442;2023-06-19T01:32:13;6.47;;;3.05;;
73515;SDS011;61763;51.416;5.442;2023-06-19T01:34:46;5.82;;;3.33;;
73515;SDS011;61763;51.416;5.442;2023-06-19T01:37:14;5.63;;;2.80;;
73515;SDS011;61763;51.416;5.442;2023-06-19T01:39:40;6.35;;;3.05;;
73515;SDS011;61763;51.416;5.442;2023-06-19T01:42:06;5.20;;;3.20;;
73515;SDS011;61763;51.416;5.442;2023-06-19T01:44:36;4.75;;;2.53;;
73515;SDS011;61763;51.416;5.442;2023-06-19T01:47:11;7.32;;;2.65;;
73515;SDS011;61763;51.416;5.442;2023-06-19T01:49:38;5.90;;;2.72;;
73515;SDS011;61763;51.416;5.442;2023-06-19T01:52:03;5.55;;;2.60;;
73515;SDS011;61763;51.416;5.442;2023-06-19T01:54:29;5.60;;;2.35;;
73515;SDS011;61763;51.416;5.442;2023-06-19T01:56:54;4.50;;;2.42;;
73515;SDS011;61763;51.416;5.442;2023-06-19T01:59:20;4.65;;;1.98;;
73515;SDS011;61763;51.416;5.442;2023-06-19T02:01:46;7.65;;;2.30;;
73515;SDS011;61763;51.416;5.442;2023-06-19T02:04:11;4.03;;;1.90;;
73515;SDS011;61763;51.416;5.442;2023-06-19T02:06:37;5.70;;;2.22;;
73515;SDS011;61763;51.416;5.442;2023-06-19T02:09:02;5.18;;;2.38;;
73515;SDS011;61763;51.416;5.442;2023-06-19T02:11:29;6.05;;;2.30;;
73515;SDS011;61763;51.416;5.442;2023-06-19T02:13:54;3.60;;;1.50;;
73515;SDS011;61763;51.416;5.442;2023-06-19T02:16:19;4.28;;;1.58;;
73515;SDS011;61763;51.416;5.442;2023-06-19T02:18:45;4.47;;;1.27;;
73515;SDS011;61763;51.416;5.442;2023-06-19T02:21:10;4.93;;;1.95;;
73515;SDS011;61763;51.416;5.442;2023-06-19T02:23:35;3.70;;;1.52;;
73515;SDS011;61763;51.416;5.442;2023-06-19T02:26:01;3.88;;;1.73;;
73515;SDS011;61763;51.416;5.442;2023-06-19T02:28:26;5.18;;;2.10;;
73515;SDS011;61763;51.416;5.442;2023-06-19T02:30:55;3.75;;;1.50;;
73515;SDS011;61763;51.416;5.442;2023-06-19T02:33:20;3.80;;;1.60;;
73515;SDS011;61763;51.416;5.442;2023-06-19T02:35:45;4.40;;;1.80;;
73515;SDS011;61763;51.416;5.442;2023-06-19T02:38:11;3.85;;;1.63;;
73515;SDS011;61763;51.416;5.442;2023-06-19T02:40:43;3.38;;;1.67;;
73515;SDS011;61763;51.416;5.442;2023-06-19T02:43:09;3.55;;;1.95;;
73515;SDS011;61763;51.416;5.442;2023-06-19T02:45:34;4.13;;;1.35;;
73515;SDS011;61763;51.416;5.442;2023-06-19T02:47:59;3.25;;;1.48;;
73515;SDS011;61763;51.416;5.442;2023-06-19T02:50:25;6.55;;;1.67;;
73515;SDS011;61763;51.416;5.442;2023-06-19T02:52:50;3.85;;;1.50;;
73515;SDS011;61763;51.416;5.442;2023-06-19T02:55:15;4.65;;;2.03;;
73515;SDS011;61763;51.416;5.442;2023-06-19T02:57:41;4.80;;;2.15;;
73515;SDS011;61763;51.416;5.442;2023-06-19T03:00:06;3.97;;;1.60;;
73515;SDS011;61763;51.416;5.442;2023-06-19T03:02:34;5.82;;;1.98;;
73515;SDS011;61763;51.416;5.442;2023-06-19T03:04:59;4.28;;;1.65;;
73515;SDS011;61763;51.416;5.442;2023-06-19T03:07:25;3.85;;;1.95;;
73515;SDS011;61763;51.416;5.442;2023-06-19T03:09:53;4.32;;;1.50;;
73515;SDS011;61763;51.416;5.442;2023-06-19T03:12:20;4.63;;;1.50;;
73515;SDS011;61763;51.416;5.442;2023-06-19T03:14:45;3.70;;;1.73;;
73515;SDS011;61763;51.416;5.442;2023-06-19T03:17:12;4.20;;;1.85;;
73515;SDS011;61763;51.416;5.442;2023-06-19T03:19:37;3.95;;;1.80;;
73515;SDS011;61763;51.416;5.442;2023-06-19T03:22:03;5.68;;;2.08;;
73515;SDS011;61763;51.416;5.442;2023-06-19T03:24:28;3.88;;;1.73;;
73515;SDS011;61763;51.416;5.442;2023-06-19T03:26:54;4.70;;;1.80;;
73515;SDS011;61763;51.416;5.442;2023-06-19T03:29:19;4.90;;;1.88;;
73515;SDS011;61763;51.416;5.442;2023-06-19T03:31:44;5.07;;;1.95;;
73515;SDS011;61763;51.416;5.442;2023-06-19T03:34:10;4.65;;;2.17;;
73515;SDS011;61763;51.416;5.442;2023-06-19T03:36:35;9.48;;;2.95;;
73515;SDS011;61763;51.416;5.442;2023-06-19T03:39:00;4.35;;;1.63;;
73515;SDS011;61763;51.416;5.442;2023-06-19T03:41:26;7.05;;;1.98;;
73515;SDS011;61763;51.416;5.442;2023-06-19T03:43:52;4.25;;;1.88;;
73515;SDS011;61763;51.416;5.442;2023-06-19T03:46:18;5.65;;;2.70;;
73515;SDS011;61763;51.416;5.442;2023-06-19T03:48:43;4.90;;;1.98;;
73515;SDS011;61763;51.416;5.442;2023-06-19T03:51:09;4.50;;;1.88;;
73515;SDS011;61763;51.416;5.442;2023-06-19T03:53:34;4.45;;;2.15;;
73515;SDS011;61763;51.416;5.442;2023-06-19T03:56:00;4.43;;;1.83;;
73515;SDS011;61763;51.416;5.442;2023-06-19T03:58:25;4.22;;;1.92;;
73515;SDS011;61763;51.416;5.442;2023-06-19T04:00:51;4.22;;;1.92;;
73515;SDS011;61763;51.416;5.442;2023-06-19T04:03:16;5.40;;;2.00;;
73515;SDS011;61763;51.416;5.442;2023-06-19T04:05:41;4.43;;;1.90;;
73515;SDS011;61763;51.416;5.442;2023-06-19T04:08:07;4.15;;;1.85;;
73515;SDS011;61763;51.416;5.442;2023-06-19T04:10:32;5.20;;;2.00;;
73515;SDS011;61763;51.416;5.442;2023-06-19T04:12:58;6.38;;;2.15;;
73515;SDS011;61763;51.416;5.442;2023-06-19T04:15:23;6.00;;;2.53;;
73515;SDS011;61763;51.416;5.442;2023-06-19T04:17:49;4.50;;;2.17;;
73515;SDS011;61763;51.416;5.442;2023-06-19T04:20:14;6.05;;;2.53;;
73515;SDS011;61763;51.416;5.442;2023-06-19T04:22:40;4.32;;;2.05;;
73515;SDS011;61763;51.416;5.442;2023-06-19T04:27:33;4.78;;;2.28;;
73515;SDS011;61763;51.416;5.442;2023-06-19T04:29:59;5.18;;;2.35;;
73515;SDS011;61763;51.416;5.442;2023-06-19T04:32:24;4.70;;;2.30;;
73515;SDS011;61763;51.416;5.442;2023-06-19T04:34:49;4.25;;;1.92;;
73515;SDS011;61763;51.416;5.442;2023-06-19T04:37:15;7.45;;;2.80;;
73515;SDS011;61763;51.416;5.442;2023-06-19T04:39:44;5.82;;;2.28;;
73515;SDS011;61763;51.416;5.442;2023-06-19T04:42:10;4.32;;;2.10;;
73515;SDS011;61763;51.416;5.442;2023-06-19T04:44:35;4.35;;;2.50;;
73515;SDS011;61763;51.416;5.442;2023-06-19T04:47:01;6.20;;;2.35;;
73515;SDS011;61763;51.416;5.442;2023-06-19T04:49:29;6.53;;;2.90;;
73515;SDS011;61763;51.416;5.442;2023-06-19T04:51:57;5.75;;;2.67;;
73515;SDS011;61763;51.416;5.442;2023-06-19T04:54:22;5.13;;;2.38;;
73515;SDS011;61763;51.416;5.442;2023-06-19T04:56:48;5.45;;;2.08;;
73515;SDS011;61763;51.416;5.442;2023-06-19T04:59:13;6.45;;;2.80;;
73515;SDS011;61763;51.416;5.442;2023-06-19T05:01:43;5.13;;;2.40;;
73515;SDS011;61763;51.416;5.442;2023-06-19T05:04:09;5.28;;;2.35;;
73515;SDS011;61763;51.416;5.442;2023-06-19T05:06:36;5.18;;;2.55;;
73515;SDS011;61763;51.416;5.442;2023-06-19T05:09:02;5.57;;;2.58;;
73515;SDS011;61763;51.416;5.442;2023-06-19T05:11:27;11.85;;;3.40;;
73515;SDS011;61763;51.416;5.442;2023-06-19T05:13:52;7.38;;;2.90;;
73515;SDS011;61763;51.416;5.442;2023-06-19T05:16:18;5.50;;;2.33;;
73515;SDS011;61763;51.416;5.442;2023-06-19T05:18:44;5.07;;;2.25;;
73515;SDS011;61763;51.416;5.442;2023-06-19T05:21:10;4.85;;;2.38;;
73515;SDS011;61763;51.416;5.442;2023-06-19T05:23:35;5.07;;;2.47;;
73515;SDS011;61763;51.416;5.442;2023-06-19T05:26:01;6.95;;;2.42;;
73515;SDS011;61763;51.416;5.442;2023-06-19T05:28:26;5.20;;;2.35;;
73515;SDS011;61763;51.416;5.442;2023-06-19T05:30:51;4.90;;;2.50;;
73515;SDS011;61763;51.416;5.442;2023-06-19T05:33:17;4.75;;;2.20;;
73515;SDS011;61763;51.416;5.442;2023-06-19T05:35:42;7.22;;;2.95;;
73515;SDS011;61763;51.416;5.442;2023-06-19T05:38:08;7.10;;;3.58;;
73515;SDS011;61763;51.416;5.442;2023-06-19T05:40:34;5.43;;;3.05;;
73515;SDS011;61763;51.416;5.442;2023-06-19T05:42:59;6.55;;;3.13;;
73515;SDS011;61763;51.416;5.442;2023-06-19T05:45:25;5.40;;;2.78;;
73515;SDS011;61763;51.416;5.442;2023-06-19T05:47:50;5.53;;;2.53;;
73515;SDS011;61763;51.416;5.442;2023-06-19T05:50:16;8.93;;;3.10;;
73515;SDS011;61763;51.416;5.442;2023-06-19T05:52:42;6.25;;;2.47;;
73515;SDS011;61763;51.416;5.442;2023-06-19T05:55:08;5.65;;;3.20;;
73515;SDS011;61763;51.416;5.442;2023-06-19T05:57:35;6.63;;;3.30;;
73515;SDS011;61763;51.416;5.442;2023-06-19T06:00:00;4.53;;;2.60;;
73515;SDS011;61763;51.416;5.442;2023-06-19T06:02:25;7.28;;;2.85;;
73515;SDS011;61763;51.416;5.442;2023-06-19T06:04:53;6.75;;;2.85;;
73515;SDS011;61763;51.416;5.442;2023-06-19T06:07:19;4.07;;;2.20;;
73515;SDS011;61763;51.416;5.442;2023-06-19T06:09:44;5.85;;;2.40;;
73515;SDS011;61763;51.416;5.442;2023-06-19T06:12:09;5.13;;;3.08;;
73515;SDS011;61763;51.416;5.442;2023-06-19T06:14:35;5.88;;;3.17;;
73515;SDS011;61763;51.416;5.442;2023-06-19T06:17:00;5.57;;;2.70;;
73515;SDS011;61763;51.416;5.442;2023-06-19T06:19:25;6.80;;;3.25;;
73515;SDS011;61763;51.416;5.442;2023-06-19T06:21:52;4.32;;;2.45;;
73515;SDS011;61763;51.416;5.442;2023-06-19T06:24:17;5.22;;;2.75;;
73515;SDS011;61763;51.416;5.442;2023-06-19T06:26:43;4.97;;;2.85;;
73515;SDS011;61763;51.416;5.442;2023-06-19T06:29:08;4.70;;;2.53;;
73515;SDS011;61763;51.416;5.442;2023-06-19T06:31:34;5.20;;;2.97;;
73515;SDS011;61763;51.416;5.442;2023-06-19T06:34:00;6.28;;;2.67;;
73515;SDS011;61763;51.416;5.442;2023-06-19T06:36:26;8.70;;;3.72;;
73515;SDS011;61763;51.416;5.442;2023-06-19T06:41:18;5.37;;;2.93;;
73515;SDS011;61763;51.416;5.442;2023-06-19T06:43:44;6.63;;;3.20;;
73515;SDS011;61763;51.416;5.442;2023-06-19T06:46:09;7.82;;;3.75;;
73515;SDS011;61763;51.416;5.442;2023-06-19T06:48:38;6.78;;;3.47;;
73515;SDS011;61763;51.416;5.442;2023-06-19T06:51:03;6.53;;;3.25;;
73515;SDS011;61763;51.416;5.442;2023-06-19T06:53:29;8.00;;;3.90;;
73515;SDS011;61763;51.416;5.442;2023-06-19T06:55:56;8.05;;;3.78;;
73515;SDS011;61763;51.416;5.442;2023-06-19T06:58:22;6.05;;;4.13;;
73515;SDS011;61763;51.416;5.442;2023-06-19T07:00:48;7.45;;;4.18;;
73515;SDS011;61763;51.416;5.442;2023-06-19T07:03:15;7.05;;;4.30;;
73515;SDS011;61763;51.416;5.442;2023-06-19T07:05:43;6.60;;;3.58;;
73515;SDS011;61763;51.416;5.442;2023-06-19T07:08:09;8.02;;;4.15;;
73515;SDS011;61763;51.416;5.442;2023-06-19T07:10:34;9.05;;;3.95;;
73515;SDS011;61763;51.416;5.442;2023-06-19T07:13:00;7.05;;;3.83;;
73515;SDS011;61763;51.416;5.442;2023-06-19T07:15:25;7.75;;;4.82;;
73515;SDS011;61763;51.416;5.442;2023-06-19T07:17:51;8.10;;;4.78;;
73515;SDS011;61763;51.416;5.442;2023-06-19T07:20:16;6.95;;;4.05;;
73515;SDS011;61763;51.416;5.442;2023-06-19T07:22:42;9.47;;;3.90;;
73515;SDS011;61763;51.416;5.442;2023-06-19T07:25:07;6.88;;;3.80;;
73515;SDS011;61763;51.416;5.442;2023-06-19T07:27:35;7.57;;;4.13;;
73515;SDS011;61763;51.416;5.442;2023-06-19T07:30:01;8.25;;;4.25;;
73515;SDS011;61763;51.416;5.442;2023-06-19T07:32:27;7.07;;;4.50;;
73515;SDS011;61763;51.416;5.442;2023-06-19T07:34:53;7.80;;;4.10;;
73515;SDS011;61763;51.416;5.442;2023-06-19T07:37:18;6.47;;;4.20;;
73515;SDS011;61763;51.416;5.442;2023-06-19T07:39:48;6.85;;;4.18;;
73515;SDS011;61763;51.416;5.442;2023-06-19T07:42:14;6.55;;;3.90;;
73515;SDS011;61763;51.416;5.442;2023-06-19T07:44:40;9.25;;;3.63;;
73515;SDS011;61763;51.416;5.442;2023-06-19T07:47:06;8.95;;;4.38;;
73515;SDS011;61763;51.416;5.442;2023-06-19T07:49:33;7.88;;;4.05;;
73515;SDS011;61763;51.416;5.442;2023-06-19T07:51:58;7.80;;;3.65;;
73515;SDS011;61763;51.416;5.442;2023-06-19T07:54:23;7.40;;;3.45;;
73515;SDS011;61763;51.416;5.442;2023-06-19T07:56:49;5.78;;;3.40;;
73515;SDS011;61763;51.416;5.442;2023-06-19T07:59:14;5.80;;;3.25;;
73515;SDS011;61763;51.416;5.442;2023-06-19T08:01:40;7.78;;;3.40;;
73515;SDS011;61763;51.416;5.442;2023-06-19T08:04:05;10.30;;;3.28;;
73515;SDS011;61763;51.416;5.442;2023-06-19T08:06:31;7.78;;;3.85;;
73515;SDS011;61763;51.416;5.442;2023-06-19T08:08:57;5.20;;;3.33;;
73515;SDS011;61763;51.416;5.442;2023-06-19T08:11:23;7.10;;;3.75;;
73515;SDS011;61763;51.416;5.442;2023-06-19T08:13:48;6.68;;;3.90;;
73515;SDS011;61763;51.416;5.442;2023-06-19T08:16:14;7.53;;;4.88;;
73515;SDS011;61763;51.416;5.442;2023-06-19T08:18:39;8.45;;;4.13;;
73515;SDS011;61763;51.416;5.442;2023-06-19T08:21:05;7.43;;;4.30;;
73515;SDS011;61763;51.416;5.442;2023-06-19T08:23:30;6.10;;;4.00;;
73515;SDS011;61763;51.416;5.442;2023-06-19T08:25:55;11.05;;;4.10;;
73515;SDS011;61763;51.416;5.442;2023-06-19T08:28:21;7.28;;;3.20;;
73515;SDS011;61763;51.416;5.442;2023-06-19T08:30:46;8.30;;;4.10;;
73515;SDS011;61763;51.416;5.442;2023-06-19T08:33:13;6.20;;;3.28;;
73515;SDS011;61763;51.416;5.442;2023-06-19T08:35:38;6.20;;;4.00;;
73515;SDS011;61763;51.416;5.442;2023-06-19T08:38:03;8.95;;;3.63;;
73515;SDS011;61763;51.416;5.442;2023-06-19T08:40:29;6.35;;;3.72;;
73515;SDS011;61763;51.416;5.442;2023-06-19T08:42:54;6.15;;;4.32;;
73515;SDS011;61763;51.416;5.442;2023-06-19T08:45:20;5.78;;;4.40;;
73515;SDS011;61763;51.416;5.442;2023-06-19T08:47:47;6.30;;;4.00;;
73515;SDS011;61763;51.416;5.442;2023-06-19T08:50:13;9.00;;;3.60;;
73515;SDS011;61763;51.416;5.442;2023-06-19T08:52:39;6.95;;;4.55;;
73515;SDS011;61763;51.416;5.442;2023-06-19T08:55:04;8.07;;;4.30;;
73515;SDS011;61763;51.416;5.442;2023-06-19T08:57:39;7.43;;;4.50;;
73515;SDS011;61763;51.416;5.442;2023-06-19T09:00:05;7.93;;;3.95;;
73515;SDS011;61763;51.416;5.442;2023-06-19T09:02:40;6.93;;;4.18;;
73515;SDS011;61763;51.416;5.442;2023-06-19T09:05:14;8.05;;;4.20;;
73515;SDS011;61763;51.416;5.442;2023-06-19T09:07:41;7.05;;;3.78;;
73515;SDS011;61763;51.416;5.442;2023-06-19T09:10:17;6.78;;;4.18;;
73515;SDS011;61763;51.416;5.442;2023-06-19T09:12:43;7.40;;;4.13;;
73515;SDS011;61763;51.416;5.442;2023-06-19T09:15:20;9.82;;;4.32;;
73515;SDS011;61763;51.416;5.442;2023-06-19T09:17:46;7.43;;;4.38;;
73515;SDS011;61763;51.416;5.442;2023-06-19T09:20:12;6.22;;;3.85;;
73515;SDS011;61763;51.416;5.442;2023-06-19T09:22:38;6.38;;;4.05;;
73515;SDS011;61763;51.416;5.442;2023-06-19T09:25:03;7.82;;;4.50;;
73515;SDS011;61763;51.416;5.442;2023-06-19T09:27:32;5.93;;;4.28;;
73515;SDS011;61763;51.416;5.442;2023-06-19T09:29:58;9.85;;;4.00;;
73515;SDS011;61763;51.416;5.442;2023-06-19T09:32:25;7.88;;;4.90;;
73515;SDS011;61763;51.416;5.442;2023-06-19T09:34:53;9.70;;;4.15;;
73515;SDS011;61763;51.416;5.442;2023-06-19T09:37:25;10.93;;;4.18;;
73515;SDS011;61763;51.416;5.442;2023-06-19T09:39:55;8.00;;;5.03;;
73515;SDS011;61763;51.416;5.442;2023-06-19T09:42:28;10.52;;;4.35;;
73515;SDS011;61763;51.416;5.442;2023-06-19T09:44:58;8.20;;;4.88;;
73515;SDS011;61763;51.416;5.442;2023-06-19T09:47:28;9.43;;;4.43;;
73515;SDS011;61763;51.416;5.442;2023-06-19T09:49:55;11.18;;;4.78;;
73515;SDS011;61763;51.416;5.442;2023-06-19T09:52:22;7.63;;;4.40;;
73515;SDS011;61763;51.416;5.442;2023-06-19T09:54:57;8.75;;;4.97;;
73515;SDS011;61763;51.416;5.442;2023-06-19T09:57:25;10.40;;;5.13;;
73515;SDS011;61763;51.416;5.442;2023-06-19T09:59:55;8.55;;;4.20;;
73515;SDS011;61763;51.416;5.442;2023-06-19T10:02:22;7.53;;;4.97;;
73515;SDS011;61763;51.416;5.442;2023-06-19T10:04:50;8.90;;;5.00;;
73515;SDS011;61763;51.416;5.442;2023-06-19T10:07:17;8.68;;;4.82;;
73515;SDS011;61763;51.416;5.442;2023-06-19T10:10:02;7.82;;;5.03;;
73515;SDS011;61763;51.416;5.442;2023-06-19T10:17:48;7.13;;;4.60;;
73515;SDS011;61763;51.416;5.442;2023-06-19T10:20:19;7.70;;;5.82;;
73515;SDS011;61763;51.416;5.442;2023-06-19T10:22:50;7.50;;;4.55;;
73515;SDS011;61763;51.416;5.442;2023-06-19T10:25:22;7.88;;;5.60;;
73515;SDS011;61763;51.416;5.442;2023-06-19T10:27:48;10.82;;;5.57;;
73515;SDS011;61763;51.416;5.442;2023-06-19T10:30:17;6.22;;;4.47;;
73515;SDS011;61763;51.416;5.442;2023-06-19T10:32:44;10.73;;;5.93;;
73515;SDS011;61763;51.416;5.442;2023-06-19T10:35:11;7.20;;;4.97;;
73515;SDS011;61763;51.416;5.442;2023-06-19T10:37:40;10.63;;;5.55;;
73515;SDS011;61763;51.416;5.442;2023-06-19T10:40:06;6.30;;;4.60;;
73515;SDS011;61763;51.416;5.442;2023-06-19T10:42:34;7.00;;;5.32;;
73515;SDS011;61763;51.416;5.442;2023-06-19T10:45:07;8.73;;;4.70;;
73515;SDS011;61763;51.416;5.442;2023-06-19T10:47:34;10.35;;;5.38;;
73515;SDS011;61763;51.416;5.442;2023-06-19T10:50:00;7.50;;;4.93;;
73515;SDS011;61763;51.416;5.442;2023-06-19T10:52:29;8.30;;;4.88;;
73515;SDS011;61763;51.416;5.442;2023-06-19T10:54:55;8.82;;;5.45;;
73515;SDS011;61763;51.416;5.442;2023-06-19T10:57:30;8.15;;;4.90;;
73515;SDS011;61763;51.416;5.442;2023-06-19T10:59:56;9.48;;;5.80;;
73515;SDS011;61763;51.416;5.442;2023-06-19T11:02:23;11.02;;;6.50;;
73515;SDS011;61763;51.416;5.442;2023-06-19T11:04:53;10.40;;;5.32;;
73515;SDS011;61763;51.416;5.442;2023-06-19T11:07:22;7.35;;;5.05;;
73515;SDS011;61763;51.416;5.442;2023-06-19T11:09:48;8.88;;;5.03;;
73515;SDS011;61763;51.416;5.442;2023-06-19T11:12:20;8.40;;;4.95;;
73515;SDS011;61763;51.416;5.442;2023-06-19T11:14:47;8.23;;;5.07;;
73515;SDS011;61763;51.416;5.442;2023-06-19T11:17:17;7.97;;;5.38;;
73515;SDS011;61763;51.416;5.442;2023-06-19T11:19:49;8.23;;;5.35;;
73515;SDS011;61763;51.416;5.442;2023-06-19T11:24:44;9.45;;;5.35;;
73515;SDS011;61763;51.416;5.442;2023-06-19T11:27:17;8.90;;;5.10;;
73515;SDS011;61763;51.416;5.442;2023-06-19T11:32:20;8.48;;;4.57;;
73515;SDS011;61763;51.416;5.442;2023-06-19T11:34:49;9.07;;;4.97;;
73515;SDS011;61763;51.416;5.442;2023-06-19T11:37:18;7.80;;;4.93;;
73515;SDS011;61763;51.416;5.442;2023-06-19T11:39:44;7.55;;;4.75;;
73515;SDS011;61763;51.416;5.442;2023-06-19T11:42:10;6.85;;;4.78;;
73515;SDS011;61763;51.416;5.442;2023-06-19T11:44:36;7.93;;;5.25;;
73515;SDS011;61763;51.416;5.442;2023-06-19T11:47:18;8.57;;;5.15;;
73515;SDS011;61763;51.416;5.442;2023-06-19T11:49:50;8.27;;;6.55;;
73515;SDS011;61763;51.416;5.442;2023-06-19T11:52:15;8.38;;;5.25;;
73515;SDS011;61763;51.416;5.442;2023-06-19T11:54:41;9.52;;;5.28;;
73515;SDS011;61763;51.416;5.442;2023-06-19T11:57:08;6.95;;;4.93;;
73515;SDS011;61763;51.416;5.442;2023-06-19T11:59:36;9.57;;;4.90;;
73515;SDS011;61763;51.416;5.442;2023-06-19T12:02:03;9.27;;;5.25;;
73515;SDS011;61763;51.416;5.442;2023-06-19T12:04:29;8.25;;;4.55;;
73515;SDS011;61763;51.416;5.442;2023-06-19T12:06:56;6.68;;;4.63;;
73515;SDS011;61763;51.416;5.442;2023-06-19T12:09:22;8.63;;;4.93;;
73515;SDS011;61763;51.416;5.442;2023-06-19T12:11:47;7.55;;;4.70;;
73515;SDS011;61763;51.416;5.442;2023-06-19T12:14:13;8.98;;;5.00;;
73515;SDS011;61763;51.416;5.442;2023-06-19T12:16:38;9.18;;;4.55;;
73515;SDS011;61763;51.416;5.442;2023-06-19T12:19:04;8.27;;;4.65;;
73515;SDS011;61763;51.416;5.442;2023-06-19T12:21:29;7.68;;;4.88;;
73515;SDS011;61763;51.416;5.442;2023-06-19T12:23:54;6.93;;;4.65;;
73515;SDS011;61763;51.416;5.442;2023-06-19T12:26:20;7.45;;;5.18;;
73515;SDS011;61763;51.416;5.442;2023-06-19T12:28:45;7.57;;;5.13;;
73515;SDS011;61763;51.416;5.442;2023-06-19T12:31:11;7.75;;;5.22;;
73515;SDS011;61763;51.416;5.442;2023-06-19T12:33:37;11.40;;;5.07;;
73515;SDS011;61763;51.416;5.442;2023-06-19T12:36:08;8.65;;;4.80;;
73515;SDS011;61763;51.416;5.442;2023-06-19T12:38:35;9.57;;;4.22;;
73515;SDS011;61763;51.416;5.442;2023-06-19T12:41:02;8.55;;;4.93;;
73515;SDS011;61763;51.416;5.442;2023-06-19T12:43:27;7.35;;;4.50;;
73515;SDS011;61763;51.416;5.442;2023-06-19T12:45:53;9.17;;;4.83;;
73515;SDS011;61763;51.416;5.442;2023-06-19T12:48:18;8.77;;;5.10;;
73515;SDS011;61763;51.416;5.442;2023-06-19T12:50:43;6.68;;;4.57;;
73515;SDS011;61763;51.416;5.442;2023-06-19T12:53:09;7.88;;;4.47;;
73515;SDS011;61763;51.416;5.442;2023-06-19T12:55:36;8.27;;;4.20;;
73515;SDS011;61763;51.416;5.442;2023-06-19T12:58:03;8.88;;;4.97;;
73515;SDS011;61763;51.416;5.442;2023-06-19T13:00:28;9.98;;;5.95;;
73515;SDS011;61763;51.416;5.442;2023-06-19T13:02:54;7.00;;;5.18;;
73515;SDS011;61763;51.416;5.442;2023-06-19T13:05:19;8.63;;;4.55;;
73515;SDS011;61763;51.416;5.442;2023-06-19T13:07:44;8.88;;;5.10;;
73515;SDS011;61763;51.416;5.442;2023-06-19T13:10:10;7.68;;;4.97;;
73515;SDS011;61763;51.416;5.442;2023-06-19T13:12:35;11.60;;;4.28;;
73515;SDS011;61763;51.416;5.442;2023-06-19T13:15:02;8.00;;;4.68;;
73515;SDS011;61763;51.416;5.442;2023-06-19T13:17:28;6.82;;;4.60;;
73515;SDS011;61763;51.416;5.442;2023-06-19T13:19:53;7.03;;;4.90;;
73515;SDS011;61763;51.416;5.442;2023-06-19T13:22:18;6.43;;;3.80;;
73515;SDS011;61763;51.416;5.442;2023-06-19T13:24:44;7.20;;;4.25;;
73515;SDS011;61763;51.416;5.442;2023-06-19T13:27:09;6.65;;;4.90;;
73515;SDS011;61763;51.416;5.442;2023-06-19T13:29:34;8.32;;;5.32;;
73515;SDS011;61763;51.416;5.442;2023-06-19T13:32:00;7.53;;;4.43;;
73515;SDS011;61763;51.416;5.442;2023-06-19T13:34:26;5.75;;;3.67;;
73515;SDS011;61763;51.416;5.442;2023-06-19T13:36:51;6.50;;;4.22;;
73515;SDS011;61763;51.416;5.442;2023-06-19T13:39:17;8.15;;;4.10;;
73515;SDS011;61763;51.416;5.442;2023-06-19T13:41:45;6.55;;;3.22;;
73515;SDS011;61763;51.416;5.442;2023-06-19T13:44:11;7.10;;;3.80;;
73515;SDS011;61763;51.416;5.442;2023-06-19T13:46:37;7.13;;;3.65;;
73515;SDS011;61763;51.416;5.442;2023-06-19T13:49:03;6.75;;;3.55;;
73515;SDS011;61763;51.416;5.442;2023-06-19T13:51:28;7.28;;;4.22;;
73515;SDS011;61763;51.416;5.442;2023-06-19T13:53:53;8.23;;;3.97;;
73515;SDS011;61763;51.416;5.442;2023-06-19T13:56:19;6.85;;;3.38;;
73515;SDS011;61763;51.416;5.442;2023-06-19T13:58:45;7.88;;;3.97;;
73515;SDS011;61763;51.416;5.442;2023-06-19T14:01:11;7.00;;;3.85;;
73515;SDS011;61763;51.416;5.442;2023-06-19T14:03:37;6.88;;;3.88;;
73515;SDS011;61763;51.416;5.442;2023-06-19T14:06:03;7.55;;;3.67;;
73515;SDS011;61763;51.416;5.442;2023-06-19T14:08:29;7.07;;;3.97;;
73515;SDS011;61763;51.416;5.442;2023-06-19T14:10:55;6.30;;;4.38;;
73515;SDS011;61763;51.416;5.442;2023-06-19T14:13:20;7.53;;;4.22;;
73515;SDS011;61763;51.416;5.442;2023-06-19T14:15:46;5.38;;;3.47;;
73515;SDS011;61763;51.416;5.442;2023-06-19T14:18:11;6.82;;;3.80;;
73515;SDS011;61763;51.416;5.442;2023-06-19T14:20:37;5.18;;;3.22;;
73515;SDS011;61763;51.416;5.442;2023-06-19T14:23:03;6.63;;;3.80;;
73515;SDS011;61763;51.416;5.442;2023-06-19T14:25:28;5.97;;;3.50;;
73515;SDS011;61763;51.416;5.442;2023-06-19T14:27:54;7.38;;;4.22;;
73515;SDS011;61763;51.416;5.442;2023-06-19T14:30:19;8.98;;;4.53;;
73515;SDS011;61763;51.416;5.442;2023-06-19T14:32:46;9.48;;;4.47;;
73515;SDS011;61763;51.416;5.442;2023-06-19T14:35:12;8.98;;;5.05;;
73515;SDS011;61763;51.416;5.442;2023-06-19T14:37:38;6.05;;;4.05;;
73515;SDS011;61763;51.416;5.442;2023-06-19T14:40:03;8.70;;;5.68;;
73515;SDS011;61763;51.416;5.442;2023-06-19T14:42:29;6.95;;;3.95;;
73515;SDS011;61763;51.416;5.442;2023-06-19T14:44:54;6.38;;;3.33;;
73515;SDS011;61763;51.416;5.442;2023-06-19T14:47:20;7.10;;;3.80;;
73515;SDS011;61763;51.416;5.442;2023-06-19T14:49:45;7.47;;;3.70;;
73515;SDS011;61763;51.416;5.442;2023-06-19T14:52:12;5.85;;;3.42;;
73515;SDS011;61763;51.416;5.442;2023-06-19T14:54:38;6.35;;;3.08;;
73515;SDS011;61763;51.416;5.442;2023-06-19T14:57:03;6.60;;;4.05;;
73515;SDS011;61763;51.416;5.442;2023-06-19T14:59:29;6.97;;;3.25;;
73515;SDS011;61763;51.416;5.442;2023-06-19T15:01:56;6.20;;;3.80;;